sensor_id;sensor_type;location;lat;lon;timestamp;P1;durP1;ratioP1;P2;durP2;ratioP2
8088;SDS011;57635;49.194;12.104;2023-09-30T00:00:27;17.57;;;11.03;;
8088;SDS011;57635;49.194;12.104;2023-09-30T00:02:55;18.03;;;11.80;;
8088;SDS011;57635;49.194;12.104;2023-09-30T00:05:24;20.47;;;12.37;;
8088;SDS011;57635;49.194;12.104;2023-09-30T00:07:52;17.97;;;11.27;;
8088;SDS011;57635;49.194;12.104;2023-09-30T00:10:20;18.87;;;11.00;;
8088;SDS011;57635;49.194;12.104;2023-09-30T00:12:47;18.13;;;12.00;;
8088;SDS011;57635;49.194;12.104;2023-09-30T00:15:15;18.67;;;11.30;;
8088;SDS011;57635;49.194;12.104;2023-09-30T00:17:43;17.67;;;10.87;;
8088;SDS011;57635;49.194;12.104;2023-09-30T00:20:11;15.17;;;11.40;;
8088;SDS011;57635;49.194;12.104;2023-09-30T00:22:42;17.13;;;10.27;;
8088;SDS011;57635;49.194;12.104;2023-09-30T00:25:10;18.50;;;11.00;;
8088;SDS011;57635;49.194;12.104;2023-09-30T00:27:37;16.67;;;10.77;;
8088;SDS011;57635;49.194;12.104;2023-09-30T00:30:06;17.43;;;10.77;;
8088;SDS011;57635;49.194;12.104;2023-09-30T00:32:34;15.57;;;10.73;;
8088;SDS011;57635;49.194;12.104;2023-09-30T00:35:02;16.93;;;10.70;;
8088;SDS011;57635;49.194;12.104;2023-09-30T00:37:30;18.00;;;10.00;;
8088;SDS011;57635;49.194;12.104;2023-09-30T00:40:00;15.33;;;10.47;;
8088;SDS011;57635;49.194;12.104;2023-09-30T00:42:29;17.70;;;10.23;;
8088;SDS011;57635;49.194;12.104;2023-09-30T00:44:56;13.20;;;9.83;;
8088;SDS011;57635;49.194;12.104;2023-09-30T00:47:24;16.77;;;10.50;;
8088;SDS011;57635;49.194;12.104;2023-09-30T00:49:53;16.73;;;10.43;;
8088;SDS011;57635;49.194;12.104;2023-09-30T00:52:20;18.67;;;11.20;;
8088;SDS011;57635;49.194;12.104;2023-09-30T00:54:49;14.80;;;10.17;;
8088;SDS011;57635;49.194;12.104;2023-09-30T00:57:19;17.60;;;11.67;;
8088;SDS011;57635;49.194;12.104;2023-09-30T00:59:48;16.07;;;10.67;;
8088;SDS011;57635;49.194;12.104;2023-09-30T01:02:17;17.53;;;10.50;;
8088;SDS011;57635;49.194;12.104;2023-09-30T01:04:45;15.97;;;10.50;;
8088;SDS011;57635;49.194;12.104;2023-09-30T01:07:12;15.10;;;10.80;;
8088;SDS011;57635;49.194;12.104;2023-09-30T01:09:40;19.33;;;11.53;;
8088;SDS011;57635;49.194;12.104;2023-09-30T01:12:08;20.23;;;11.43;;
8088;SDS011;57635;49.194;12.104;2023-09-30T01:14:37;18.50;;;11.87;;
8088;SDS011;57635;49.194;12.104;2023-09-30T01:17:07;19.10;;;11.73;;
8088;SDS011;57635;49.194;12.104;2023-09-30T01:19:35;18.47;;;12.53;;
8088;SDS011;57635;49.194;12.104;2023-09-30T01:22:05;15.23;;;10.70;;
8088;SDS011;57635;49.194;12.104;2023-09-30T01:24:38;17.60;;;10.70;;
8088;SDS011;57635;49.194;12.104;2023-09-30T01:27:07;22.13;;;12.00;;
8088;SDS011;57635;49.194;12.104;2023-09-30T01:29:35;18.10;;;10.63;;
8088;SDS011;57635;49.194;12.104;2023-09-30T01:32:04;17.23;;;11.00;;
8088;SDS011;57635;49.194;12.104;2023-09-30T01:34:34;19.30;;;10.93;;
8088;SDS011;57635;49.194;12.104;2023-09-30T01:37:02;16.33;;;11.00;;
8088;SDS011;57635;49.194;12.104;2023-09-30T01:39:31;18.63;;;10.97;;
8088;SDS011;57635;49.194;12.104;2023-09-30T01:42:00;14.57;;;10.80;;
8088;SDS011;57635;49.194;12.104;2023-09-30T01:44:27;19.97;;;11.40;;
8088;SDS011;57635;49.194;12.104;2023-09-30T01:46:55;18.33;;;12.03;;
8088;SDS011;57635;49.194;12.104;2023-09-30T01:49:23;16.23;;;10.57;;
8088;SDS011;57635;49.194;12.104;2023-09-30T01:51:52;18.77;;;11.50;;
8088;SDS011;57635;49.194;12.104;2023-09-30T01:54:20;15.47;;;9.47;;
8088;SDS011;57635;49.194;12.104;2023-09-30T01:56:49;18.67;;;10.87;;
8088;SDS011;57635;49.194;12.104;2023-09-30T01:59:17;19.57;;;11.07;;
8088;SDS011;57635;49.194;12.104;2023-09-30T02:01:44;17.57;;;9.83;;
8088;SDS011;57635;49.194;12.104;2023-09-30T02:04:13;20.07;;;11.33;;
8088;SDS011;57635;49.194;12.104;2023-09-30T02:06:42;16.13;;;10.03;;
8088;SDS011;57635;49.194;12.104;2023-09-30T02:09:10;15.73;;;10.57;;
8088;SDS011;57635;49.194;12.104;2023-09-30T02:11:39;17.70;;;10.30;;
8088;SDS011;57635;49.194;12.104;2023-09-30T02:14:09;15.50;;;10.17;;
8088;SDS011;57635;49.194;12.104;2023-09-30T02:16:38;22.63;;;9.90;;
8088;SDS011;57635;49.194;12.104;2023-09-30T02:19:06;15.83;;;9.20;;
8088;SDS011;57635;49.194;12.104;2023-09-30T02:21:35;15.17;;;9.30;;
8088;SDS011;57635;49.194;12.104;2023-09-30T02:24:03;19.10;;;9.10;;
8088;SDS011;57635;49.194;12.104;2023-09-30T02:26:32;13.37;;;9.33;;
8088;SDS011;57635;49.194;12.104;2023-09-30T02:29:00;13.90;;;9.03;;
8088;SDS011;57635;49.194;12.104;2023-09-30T02:31:29;14.33;;;9.27;;
8088;SDS011;57635;49.194;12.104;2023-09-30T02:33:57;14.80;;;8.93;;
8088;SDS011;57635;49.194;12.104;2023-09-30T02:36:25;13.90;;;9.47;;
8088;SDS011;57635;49.194;12.104;2023-09-30T02:38:53;15.87;;;10.00;;
8088;SDS011;57635;49.194;12.104;2023-09-30T02:41:21;14.20;;;8.97;;
8088;SDS011;57635;49.194;12.104;2023-09-30T02:43:49;10.57;;;8.03;;
8088;SDS011;57635;49.194;12.104;2023-09-30T02:46:17;14.23;;;8.17;;
8088;SDS011;57635;49.194;12.104;2023-09-30T02:48:46;12.03;;;7.80;;
8088;SDS011;57635;49.194;12.104;2023-09-30T02:51:14;12.17;;;7.60;;
8088;SDS011;57635;49.194;12.104;2023-09-30T02:53:41;11.60;;;8.10;;
8088;SDS011;57635;49.194;12.104;2023-09-30T02:56:09;13.37;;;8.50;;
8088;SDS011;57635;49.194;12.104;2023-09-30T02:58:37;12.07;;;8.03;;
8088;SDS011;57635;49.194;12.104;2023-09-30T03:01:06;12.03;;;8.17;;
8088;SDS011;57635;49.194;12.104;2023-09-30T03:03:36;13.23;;;8.13;;
8088;SDS011;57635;49.194;12.104;2023-09-30T03:06:06;12.73;;;8.50;;
8088;SDS011;57635;49.194;12.104;2023-09-30T03:08:34;13.47;;;8.37;;
8088;SDS011;57635;49.194;12.104;2023-09-30T03:11:02;13.50;;;9.17;;
8088;SDS011;57635;49.194;12.104;2023-09-30T03:13:30;10.03;;;7.67;;
8088;SDS011;57635;49.194;12.104;2023-09-30T03:15:58;12.67;;;8.37;;
8088;SDS011;57635;49.194;12.104;2023-09-30T03:18:27;11.50;;;7.67;;
8088;SDS011;57635;49.194;12.104;2023-09-30T03:20:58;12.40;;;7.87;;
8088;SDS011;57635;49.194;12.104;2023-09-30T03:23:28;11.57;;;7.17;;
8088;SDS011;57635;49.194;12.104;2023-09-30T03:25:57;12.20;;;7.67;;
8088;SDS011;57635;49.194;12.104;2023-09-30T03:28:25;12.13;;;7.33;;
8088;SDS011;57635;49.194;12.104;2023-09-30T03:30:53;12.07;;;7.87;;
8088;SDS011;57635;49.194;12.104;2023-09-30T03:33:21;10.03;;;7.13;;
8088;SDS011;57635;49.194;12.104;2023-09-30T03:35:49;11.33;;;7.03;;
8088;SDS011;57635;49.194;12.104;2023-09-30T03:38:18;14.00;;;7.43;;
8088;SDS011;57635;49.194;12.104;2023-09-30T03:40:47;10.40;;;6.97;;
8088;SDS011;57635;49.194;12.104;2023-09-30T03:43:16;11.57;;;7.77;;
8088;SDS011;57635;49.194;12.104;2023-09-30T03:45:44;12.17;;;6.73;;
8088;SDS011;57635;49.194;12.104;2023-09-30T03:48:12;9.17;;;7.17;;
8088;SDS011;57635;49.194;12.104;2023-09-30T03:50:40;10.17;;;7.50;;
8088;SDS011;57635;49.194;12.104;2023-09-30T03:53:08;10.30;;;6.67;;
8088;SDS011;57635;49.194;12.104;2023-09-30T03:55:37;13.10;;;7.97;;
8088;SDS011;57635;49.194;12.104;2023-09-30T03:58:06;9.80;;;6.47;;
8088;SDS011;57635;49.194;12.104;2023-09-30T04:00:33;9.73;;;6.63;;
8088;SDS011;57635;49.194;12.104;2023-09-30T04:03:02;11.40;;;6.73;;
8088;SDS011;57635;49.194;12.104;2023-09-30T04:05:30;10.40;;;7.23;;
8088;SDS011;57635;49.194;12.104;2023-09-30T04:08:03;11.43;;;7.20;;
8088;SDS011;57635;49.194;12.104;2023-09-30T04:10:31;9.77;;;6.07;;
8088;SDS011;57635;49.194;12.104;2023-09-30T04:12:59;12.27;;;8.07;;
8088;SDS011;57635;49.194;12.104;2023-09-30T04:15:28;11.23;;;6.47;;
8088;SDS011;57635;49.194;12.104;2023-09-30T04:17:57;10.13;;;6.67;;
8088;SDS011;57635;49.194;12.104;2023-09-30T04:20:25;10.23;;;7.00;;
8088;SDS011;57635;49.194;12.104;2023-09-30T04:22:53;14.53;;;8.70;;
8088;SDS011;57635;49.194;12.104;2023-09-30T04:25:24;11.00;;;8.17;;
8088;SDS011;57635;49.194;12.104;2023-09-30T04:27:52;11.07;;;7.53;;
8088;SDS011;57635;49.194;12.104;2023-09-30T04:30:20;9.00;;;6.90;;
8088;SDS011;57635;49.194;12.104;2023-09-30T04:32:50;9.03;;;6.57;;
8088;SDS011;57635;49.194;12.104;2023-09-30T04:35:19;8.53;;;6.50;;
8088;SDS011;57635;49.194;12.104;2023-09-30T04:37:47;13.10;;;7.53;;
8088;SDS011;57635;49.194;12.104;2023-09-30T04:40:15;9.27;;;6.30;;
8088;SDS011;57635;49.194;12.104;2023-09-30T04:42:47;8.27;;;6.67;;
8088;SDS011;57635;49.194;12.104;2023-09-30T04:45:15;12.37;;;7.03;;
8088;SDS011;57635;49.194;12.104;2023-09-30T04:47:43;10.33;;;6.20;;
8088;SDS011;57635;49.194;12.104;2023-09-30T04:50:13;7.33;;;5.67;;
8088;SDS011;57635;49.194;12.104;2023-09-30T04:52:43;10.77;;;6.47;;
8088;SDS011;57635;49.194;12.104;2023-09-30T04:55:12;8.77;;;6.43;;
8088;SDS011;57635;49.194;12.104;2023-09-30T04:57:42;9.97;;;6.77;;
8088;SDS011;57635;49.194;12.104;2023-09-30T05:00:12;10.73;;;6.57;;
8088;SDS011;57635;49.194;12.104;2023-09-30T05:02:40;9.70;;;6.27;;
8088;SDS011;57635;49.194;12.104;2023-09-30T05:05:11;10.50;;;7.30;;
8088;SDS011;57635;49.194;12.104;2023-09-30T05:07:40;8.87;;;6.07;;
8088;SDS011;57635;49.194;12.104;2023-09-30T05:10:08;12.33;;;7.63;;
8088;SDS011;57635;49.194;12.104;2023-09-30T05:12:37;8.60;;;6.87;;
8088;SDS011;57635;49.194;12.104;2023-09-30T05:15:07;13.17;;;7.07;;
8088;SDS011;57635;49.194;12.104;2023-09-30T05:17:37;12.60;;;7.33;;
8088;SDS011;57635;49.194;12.104;2023-09-30T05:20:05;10.53;;;7.30;;
8088;SDS011;57635;49.194;12.104;2023-09-30T05:22:33;12.63;;;7.93;;
8088;SDS011;57635;49.194;12.104;2023-09-30T05:25:02;9.80;;;7.10;;
8088;SDS011;57635;49.194;12.104;2023-09-30T05:27:30;8.53;;;6.73;;
8088;SDS011;57635;49.194;12.104;2023-09-30T05:29:58;10.53;;;7.00;;
8088;SDS011;57635;49.194;12.104;2023-09-30T05:32:26;11.90;;;7.27;;
8088;SDS011;57635;49.194;12.104;2023-09-30T05:34:54;11.40;;;7.97;;
8088;SDS011;57635;49.194;12.104;2023-09-30T05:37:22;12.17;;;7.87;;
8088;SDS011;57635;49.194;12.104;2023-09-30T05:39:49;9.80;;;6.77;;
8088;SDS011;57635;49.194;12.104;2023-09-30T05:42:18;11.30;;;7.13;;
8088;SDS011;57635;49.194;12.104;2023-09-30T05:44:46;10.57;;;7.73;;
8088;SDS011;57635;49.194;12.104;2023-09-30T05:47:15;10.37;;;6.80;;
8088;SDS011;57635;49.194;12.104;2023-09-30T05:49:42;12.70;;;7.60;;
8088;SDS011;57635;49.194;12.104;2023-09-30T05:52:10;9.90;;;7.30;;
8088;SDS011;57635;49.194;12.104;2023-09-30T05:54:39;9.73;;;7.73;;
8088;SDS011;57635;49.194;12.104;2023-09-30T05:57:07;14.30;;;8.03;;
8088;SDS011;57635;49.194;12.104;2023-09-30T05:59:36;10.97;;;8.60;;
8088;SDS011;57635;49.194;12.104;2023-09-30T06:02:04;13.00;;;8.00;;
8088;SDS011;57635;49.194;12.104;2023-09-30T06:04:32;11.53;;;7.90;;
8088;SDS011;57635;49.194;12.104;2023-09-30T06:07:00;14.93;;;8.73;;
8088;SDS011;57635;49.194;12.104;2023-09-30T06:09:28;13.80;;;8.00;;
8088;SDS011;57635;49.194;12.104;2023-09-30T06:11:57;12.40;;;8.10;;
8088;SDS011;57635;49.194;12.104;2023-09-30T06:14:26;13.20;;;7.73;;
8088;SDS011;57635;49.194;12.104;2023-09-30T06:16:58;14.63;;;8.33;;
8088;SDS011;57635;49.194;12.104;2023-09-30T06:19:26;11.07;;;7.87;;
8088;SDS011;57635;49.194;12.104;2023-09-30T06:21:54;11.10;;;8.00;;
8088;SDS011;57635;49.194;12.104;2023-09-30T06:24:23;10.43;;;7.27;;
8088;SDS011;57635;49.194;12.104;2023-09-30T06:26:50;11.93;;;7.90;;
8088;SDS011;57635;49.194;12.104;2023-09-30T06:29:18;10.83;;;7.57;;
8088;SDS011;57635;49.194;12.104;2023-09-30T06:31:45;11.27;;;7.97;;
8088;SDS011;57635;49.194;12.104;2023-09-30T06:34:14;15.27;;;7.90;;
8088;SDS011;57635;49.194;12.104;2023-09-30T06:36:43;13.20;;;8.50;;
8088;SDS011;57635;49.194;12.104;2023-09-30T06:39:11;11.47;;;7.77;;
8088;SDS011;57635;49.194;12.104;2023-09-30T06:41:39;12.30;;;8.43;;
8088;SDS011;57635;49.194;12.104;2023-09-30T06:44:06;9.70;;;7.80;;
8088;SDS011;57635;49.194;12.104;2023-09-30T06:46:34;8.47;;;7.50;;
8088;SDS011;57635;49.194;12.104;2023-09-30T06:49:02;10.57;;;7.53;;
8088;SDS011;57635;49.194;12.104;2023-09-30T06:51:31;12.87;;;7.67;;
8088;SDS011;57635;49.194;12.104;2023-09-30T06:53:59;9.33;;;7.33;;
8088;SDS011;57635;49.194;12.104;2023-09-30T06:56:26;10.70;;;7.57;;
8088;SDS011;57635;49.194;12.104;2023-09-30T06:58:54;11.37;;;8.30;;
8088;SDS011;57635;49.194;12.104;2023-09-30T07:01:22;11.83;;;7.07;;
8088;SDS011;57635;49.194;12.104;2023-09-30T07:03:50;11.23;;;8.00;;
8088;SDS011;57635;49.194;12.104;2023-09-30T07:06:21;9.97;;;7.47;;
8088;SDS011;57635;49.194;12.104;2023-09-30T07:08:51;9.50;;;7.23;;
8088;SDS011;57635;49.194;12.104;2023-09-30T07:11:26;10.13;;;7.63;;
8088;SDS011;57635;49.194;12.104;2023-09-30T07:13:55;11.00;;;7.20;;
8088;SDS011;57635;49.194;12.104;2023-09-30T07:16:23;11.23;;;8.90;;
8088;SDS011;57635;49.194;12.104;2023-09-30T07:18:50;11.00;;;8.10;;
8088;SDS011;57635;49.194;12.104;2023-09-30T07:21:18;11.30;;;8.67;;
8088;SDS011;57635;49.194;12.104;2023-09-30T07:23:47;10.50;;;7.60;;
8088;SDS011;57635;49.194;12.104;2023-09-30T07:26:16;12.23;;;7.30;;
8088;SDS011;57635;49.194;12.104;2023-09-30T07:28:44;9.17;;;6.87;;
8088;SDS011;57635;49.194;12.104;2023-09-30T07:31:11;10.13;;;6.73;;
8088;SDS011;57635;49.194;12.104;2023-09-30T07:33:39;11.37;;;6.23;;
8088;SDS011;57635;49.194;12.104;2023-09-30T07:36:07;8.57;;;6.27;;
8088;SDS011;57635;49.194;12.104;2023-09-30T07:38:35;9.23;;;6.07;;
8088;SDS011;57635;49.194;12.104;2023-09-30T07:41:03;9.83;;;5.33;;
8088;SDS011;57635;49.194;12.104;2023-09-30T07:43:32;7.33;;;4.80;;
8088;SDS011;57635;49.194;12.104;2023-09-30T07:46:04;5.23;;;4.73;;
8088;SDS011;57635;49.194;12.104;2023-09-30T07:48:33;6.47;;;4.67;;
8088;SDS011;57635;49.194;12.104;2023-09-30T07:51:01;4.97;;;4.10;;
8088;SDS011;57635;49.194;12.104;2023-09-30T07:53:30;2.93;;;2.63;;
8088;SDS011;57635;49.194;12.104;2023-09-30T07:55:58;3.43;;;2.73;;
8088;SDS011;57635;49.194;12.104;2023-09-30T07:58:26;2.57;;;1.33;;
8088;SDS011;57635;49.194;12.104;2023-09-30T08:00:56;1.50;;;1.40;;
8088;SDS011;57635;49.194;12.104;2023-09-30T08:03:24;1.53;;;1.43;;
8088;SDS011;57635;49.194;12.104;2023-09-30T08:05:52;2.20;;;1.63;;
8088;SDS011;57635;49.194;12.104;2023-09-30T08:08:20;0.70;;;0.70;;
8088;SDS011;57635;49.194;12.104;2023-09-30T08:10:48;1.20;;;1.00;;
8088;SDS011;57635;49.194;12.104;2023-09-30T08:13:16;1.30;;;1.20;;
8088;SDS011;57635;49.194;12.104;2023-09-30T08:15:43;1.73;;;1.63;;
8088;SDS011;57635;49.194;12.104;2023-09-30T08:18:13;1.83;;;1.73;;
8088;SDS011;57635;49.194;12.104;2023-09-30T08:20:41;0.60;;;0.60;;
8088;SDS011;57635;49.194;12.104;2023-09-30T08:23:09;0.97;;;0.97;;
8088;SDS011;57635;49.194;12.104;2023-09-30T08:25:37;0.90;;;0.90;;
8088;SDS011;57635;49.194;12.104;2023-09-30T08:28:05;0.80;;;0.80;;
8088;SDS011;57635;49.194;12.104;2023-09-30T08:30:33;0.70;;;0.70;;
8088;SDS011;57635;49.194;12.104;2023-09-30T08:33:01;1.03;;;1.03;;
8088;SDS011;57635;49.194;12.104;2023-09-30T08:35:34;0.70;;;0.70;;
8088;SDS011;57635;49.194;12.104;2023-09-30T08:38:02;1.17;;;0.63;;
8088;SDS011;57635;49.194;12.104;2023-09-30T08:40:30;0.50;;;0.50;;
8088;SDS011;57635;49.194;12.104;2023-09-30T08:42:58;0.83;;;0.77;;
8088;SDS011;57635;49.194;12.104;2023-09-30T08:45:28;0.83;;;0.83;;
8088;SDS011;57635;49.194;12.104;2023-09-30T08:47:57;0.80;;;0.80;;
8088;SDS011;57635;49.194;12.104;2023-09-30T08:50:33;0.50;;;0.50;;
8088;SDS011;57635;49.194;12.104;2023-09-30T08:53:01;0.60;;;0.60;;
8088;SDS011;57635;49.194;12.104;2023-09-30T08:55:30;0.50;;;0.50;;
8088;SDS011;57635;49.194;12.104;2023-09-30T08:58:00;0.60;;;0.60;;
8088;SDS011;57635;49.194;12.104;2023-09-30T09:00:28;0.90;;;0.90;;
8088;SDS011;57635;49.194;12.104;2023-09-30T09:02:56;0.73;;;0.73;;
8088;SDS011;57635;49.194;12.104;2023-09-30T09:05:24;1.00;;;1.00;;
8088;SDS011;57635;49.194;12.104;2023-09-30T09:07:53;1.33;;;0.80;;
8088;SDS011;57635;49.194;12.104;2023-09-30T09:10:21;0.60;;;0.60;;
8088;SDS011;57635;49.194;12.104;2023-09-30T09:12:54;0.80;;;0.80;;
8088;SDS011;57635;49.194;12.104;2023-09-30T09:15:23;0.50;;;0.50;;
8088;SDS011;57635;49.194;12.104;2023-09-30T09:17:52;0.70;;;0.70;;
8088;SDS011;57635;49.194;12.104;2023-09-30T09:20:21;0.70;;;0.70;;
8088;SDS011;57635;49.194;12.104;2023-09-30T09:22:49;0.60;;;0.60;;
8088;SDS011;57635;49.194;12.104;2023-09-30T09:25:21;0.60;;;0.60;;
8088;SDS011;57635;49.194;12.104;2023-09-30T09:27:50;0.50;;;0.50;;
8088;SDS011;57635;49.194;12.104;2023-09-30T09:30:20;0.70;;;0.70;;
8088;SDS011;57635;49.194;12.104;2023-09-30T09:35:34;0.80;;;0.80;;
8088;SDS011;57635;49.194;12.104;2023-09-30T09:38:03;1.10;;;1.00;;
8088;SDS011;57635;49.194;12.104;2023-09-30T09:40:33;0.80;;;0.80;;
8088;SDS011;57635;49.194;12.104;2023-09-30T09:43:02;2.43;;;1.10;;
8088;SDS011;57635;49.194;12.104;2023-09-30T09:45:32;1.37;;;1.30;;
8088;SDS011;57635;49.194;12.104;2023-09-30T09:48:02;0.93;;;0.93;;
8088;SDS011;57635;49.194;12.104;2023-09-30T09:50:31;0.90;;;0.90;;
8088;SDS011;57635;49.194;12.104;2023-09-30T09:52:59;3.00;;;1.27;;
8088;SDS011;57635;49.194;12.104;2023-09-30T09:55:27;0.80;;;0.80;;
8088;SDS011;57635;49.194;12.104;2023-09-30T09:57:56;1.20;;;1.20;;
8088;SDS011;57635;49.194;12.104;2023-09-30T10:00:25;1.03;;;1.03;;
8088;SDS011;57635;49.194;12.104;2023-09-30T10:02:56;1.97;;;1.00;;
8088;SDS011;57635;49.194;12.104;2023-09-30T10:05:25;1.30;;;1.30;;
8088;SDS011;57635;49.194;12.104;2023-09-30T10:07:54;1.20;;;1.20;;
8088;SDS011;57635;49.194;12.104;2023-09-30T10:10:24;0.83;;;0.83;;
8088;SDS011;57635;49.194;12.104;2023-09-30T10:12:52;1.80;;;1.47;;
8088;SDS011;57635;49.194;12.104;2023-09-30T10:15:39;1.20;;;1.20;;
8088;SDS011;57635;49.194;12.104;2023-09-30T10:18:08;1.30;;;1.20;;
8088;SDS011;57635;49.194;12.104;2023-09-30T10:20:41;0.90;;;0.90;;
8088;SDS011;57635;49.194;12.104;2023-09-30T10:23:18;1.40;;;1.30;;
8088;SDS011;57635;49.194;12.104;2023-09-30T10:25:52;1.40;;;1.30;;
8088;SDS011;57635;49.194;12.104;2023-09-30T10:28:37;1.73;;;1.57;;
8088;SDS011;57635;49.194;12.104;2023-09-30T10:31:09;1.57;;;1.40;;
8088;SDS011;57635;49.194;12.104;2023-09-30T10:36:47;1.77;;;1.67;;
8088;SDS011;57635;49.194;12.104;2023-09-30T10:39:52;1.20;;;1.20;;
8088;SDS011;57635;49.194;12.104;2023-09-30T10:48:33;1.80;;;1.70;;
8088;SDS011;57635;49.194;12.104;2023-09-30T10:51:14;2.00;;;1.60;;
8088;SDS011;57635;49.194;12.104;2023-09-30T10:53:46;18.00;;;5.87;;
8088;SDS011;57635;49.194;12.104;2023-09-30T10:56:15;2.27;;;2.13;;
8088;SDS011;57635;49.194;12.104;2023-09-30T10:58:43;2.13;;;2.03;;
8088;SDS011;57635;49.194;12.104;2023-09-30T11:01:12;1.57;;;1.47;;
8088;SDS011;57635;49.194;12.104;2023-09-30T11:03:42;2.53;;;1.67;;
8088;SDS011;57635;49.194;12.104;2023-09-30T11:06:13;2.20;;;2.00;;
8088;SDS011;57635;49.194;12.104;2023-09-30T11:08:45;2.33;;;2.13;;
8088;SDS011;57635;49.194;12.104;2023-09-30T11:11:14;2.07;;;1.90;;
8088;SDS011;57635;49.194;12.104;2023-09-30T11:13:42;1.90;;;1.80;;
8088;SDS011;57635;49.194;12.104;2023-09-30T11:16:10;2.30;;;2.10;;
8088;SDS011;57635;49.194;12.104;2023-09-30T11:18:37;2.73;;;2.30;;
8088;SDS011;57635;49.194;12.104;2023-09-30T11:21:08;2.83;;;2.30;;
8088;SDS011;57635;49.194;12.104;2023-09-30T11:23:37;2.80;;;2.37;;
8088;SDS011;57635;49.194;12.104;2023-09-30T11:26:04;2.63;;;2.43;;
8088;SDS011;57635;49.194;12.104;2023-09-30T11:28:35;2.30;;;2.17;;
8088;SDS011;57635;49.194;12.104;2023-09-30T11:31:09;2.93;;;2.60;;
8088;SDS011;57635;49.194;12.104;2023-09-30T11:33:47;5.17;;;2.57;;
8088;SDS011;57635;49.194;12.104;2023-09-30T11:36:20;2.63;;;2.43;;
8088;SDS011;57635;49.194;12.104;2023-09-30T11:38:49;2.80;;;2.23;;
8088;SDS011;57635;49.194;12.104;2023-09-30T11:41:19;2.40;;;2.20;;
8088;SDS011;57635;49.194;12.104;2023-09-30T11:43:58;3.23;;;2.57;;
8088;SDS011;57635;49.194;12.104;2023-09-30T11:46:49;3.23;;;2.87;;
8088;SDS011;57635;49.194;12.104;2023-09-30T11:49:25;3.40;;;2.77;;
8088;SDS011;57635;49.194;12.104;2023-09-30T11:51:55;3.33;;;3.07;;
8088;SDS011;57635;49.194;12.104;2023-09-30T11:54:28;3.70;;;2.93;;
8088;SDS011;57635;49.194;12.104;2023-09-30T11:56:56;3.13;;;2.90;;
8088;SDS011;57635;49.194;12.104;2023-09-30T11:59:24;3.50;;;3.20;;
8088;SDS011;57635;49.194;12.104;2023-09-30T12:01:52;3.37;;;2.77;;
8088;SDS011;57635;49.194;12.104;2023-09-30T12:04:38;2.67;;;2.47;;
8088;SDS011;57635;49.194;12.104;2023-09-30T12:07:07;4.13;;;2.70;;
8088;SDS011;57635;49.194;12.104;2023-09-30T12:09:35;4.13;;;2.70;;
8088;SDS011;57635;49.194;12.104;2023-09-30T12:12:04;2.90;;;2.70;;
8088;SDS011;57635;49.194;12.104;2023-09-30T12:14:36;3.40;;;3.10;;
8088;SDS011;57635;49.194;12.104;2023-09-30T12:17:04;4.00;;;3.47;;
8088;SDS011;57635;49.194;12.104;2023-09-30T12:19:32;5.57;;;2.77;;
8088;SDS011;57635;49.194;12.104;2023-09-30T12:22:00;3.57;;;3.27;;
8088;SDS011;57635;49.194;12.104;2023-09-30T12:24:30;3.27;;;2.97;;
8088;SDS011;57635;49.194;12.104;2023-09-30T12:26:58;2.73;;;2.53;;
8088;SDS011;57635;49.194;12.104;2023-09-30T12:29:25;3.43;;;3.13;;
8088;SDS011;57635;49.194;12.104;2023-09-30T12:31:53;3.27;;;2.90;;
8088;SDS011;57635;49.194;12.104;2023-09-30T12:34:21;3.73;;;2.60;;
8088;SDS011;57635;49.194;12.104;2023-09-30T12:36:52;3.07;;;2.53;;
8088;SDS011;57635;49.194;12.104;2023-09-30T12:39:20;4.37;;;3.60;;
8088;SDS011;57635;49.194;12.104;2023-09-30T12:41:53;3.97;;;3.07;;
8088;SDS011;57635;49.194;12.104;2023-09-30T12:44:21;4.67;;;3.30;;
8088;SDS011;57635;49.194;12.104;2023-09-30T12:46:50;3.87;;;3.20;;
8088;SDS011;57635;49.194;12.104;2023-09-30T12:49:17;3.40;;;3.07;;
8088;SDS011;57635;49.194;12.104;2023-09-30T12:51:46;6.20;;;3.10;;
8088;SDS011;57635;49.194;12.104;2023-09-30T12:54:14;3.80;;;3.40;;
8088;SDS011;57635;49.194;12.104;2023-09-30T12:56:44;3.67;;;3.07;;
8088;SDS011;57635;49.194;12.104;2023-09-30T12:59:14;3.47;;;3.13;;
8088;SDS011;57635;49.194;12.104;2023-09-30T13:01:44;3.80;;;3.43;;
8088;SDS011;57635;49.194;12.104;2023-09-30T13:04:13;3.17;;;2.87;;
8088;SDS011;57635;49.194;12.104;2023-09-30T13:06:40;3.67;;;3.20;;
8088;SDS011;57635;49.194;12.104;2023-09-30T13:09:08;3.40;;;3.10;;
8088;SDS011;57635;49.194;12.104;2023-09-30T13:11:36;3.73;;;3.43;;
8088;SDS011;57635;49.194;12.104;2023-09-30T13:14:04;3.00;;;2.77;;
8088;SDS011;57635;49.194;12.104;2023-09-30T13:16:33;3.27;;;2.97;;
8088;SDS011;57635;49.194;12.104;2023-09-30T13:19:00;4.50;;;3.40;;
8088;SDS011;57635;49.194;12.104;2023-09-30T13:21:29;3.53;;;3.07;;
8088;SDS011;57635;49.194;12.104;2023-09-30T13:23:57;3.70;;;3.10;;
8088;SDS011;57635;49.194;12.104;2023-09-30T13:26:24;3.83;;;3.43;;
8088;SDS011;57635;49.194;12.104;2023-09-30T13:28:52;6.20;;;3.60;;
8088;SDS011;57635;49.194;12.104;2023-09-30T13:31:20;4.00;;;3.60;;
8088;SDS011;57635;49.194;12.104;2023-09-30T13:33:49;5.20;;;3.50;;
8088;SDS011;57635;49.194;12.104;2023-09-30T13:36:17;3.57;;;3.27;;
8088;SDS011;57635;49.194;12.104;2023-09-30T13:38:44;5.30;;;3.70;;
8088;SDS011;57635;49.194;12.104;2023-09-30T13:41:13;3.40;;;3.00;;
8088;SDS011;57635;49.194;12.104;2023-09-30T13:43:42;4.50;;;3.70;;
8088;SDS011;57635;49.194;12.104;2023-09-30T13:46:09;3.80;;;3.37;;
8088;SDS011;57635;49.194;12.104;2023-09-30T13:48:39;4.57;;;4.07;;
8088;SDS011;57635;49.194;12.104;2023-09-30T13:51:09;4.43;;;3.70;;
8088;SDS011;57635;49.194;12.104;2023-09-30T13:53:37;4.27;;;3.53;;
8088;SDS011;57635;49.194;12.104;2023-09-30T13:56:06;4.43;;;4.03;;
8088;SDS011;57635;49.194;12.104;2023-09-30T13:58:34;4.57;;;3.97;;
8088;SDS011;57635;49.194;12.104;2023-09-30T14:01:01;4.00;;;3.33;;
8088;SDS011;57635;49.194;12.104;2023-09-30T14:03:29;4.47;;;4.07;;
8088;SDS011;57635;49.194;12.104;2023-09-30T14:05:57;4.07;;;3.57;;
8088;SDS011;57635;49.194;12.104;2023-09-30T14:08:26;4.43;;;4.03;;
8088;SDS011;57635;49.194;12.104;2023-09-30T14:10:54;4.00;;;3.70;;
8088;SDS011;57635;49.194;12.104;2023-09-30T14:13:22;5.70;;;4.10;;
8088;SDS011;57635;49.194;12.104;2023-09-30T14:15:49;4.70;;;3.63;;
8088;SDS011;57635;49.194;12.104;2023-09-30T14:18:19;3.47;;;3.17;;
8088;SDS011;57635;49.194;12.104;2023-09-30T14:20:46;4.93;;;4.00;;
8088;SDS011;57635;49.194;12.104;2023-09-30T14:23:14;5.37;;;4.50;;
8088;SDS011;57635;49.194;12.104;2023-09-30T14:25:43;4.93;;;4.53;;
8088;SDS011;57635;49.194;12.104;2023-09-30T14:28:11;3.70;;;3.40;;
8088;SDS011;57635;49.194;12.104;2023-09-30T14:30:40;4.17;;;3.77;;
8088;SDS011;57635;49.194;12.104;2023-09-30T14:33:08;4.30;;;3.63;;
8088;SDS011;57635;49.194;12.104;2023-09-30T14:35:35;3.87;;;3.50;;
8088;SDS011;57635;49.194;12.104;2023-09-30T14:38:03;5.10;;;4.27;;
8088;SDS011;57635;49.194;12.104;2023-09-30T14:40:35;4.07;;;3.63;;
8088;SDS011;57635;49.194;12.104;2023-09-30T14:43:07;4.67;;;4.07;;
8088;SDS011;57635;49.194;12.104;2023-09-30T14:45:39;4.17;;;3.77;;
8088;SDS011;57635;49.194;12.104;2023-09-30T14:48:08;4.63;;;3.53;;
8088;SDS011;57635;49.194;12.104;2023-09-30T14:50:36;3.63;;;3.33;;
8088;SDS011;57635;49.194;12.104;2023-09-30T14:53:04;3.83;;;3.50;;
8088;SDS011;57635;49.194;12.104;2023-09-30T14:55:32;5.17;;;4.13;;
8088;SDS011;57635;49.194;12.104;2023-09-30T14:57:59;4.63;;;3.60;;
8088;SDS011;57635;49.194;12.104;2023-09-30T15:00:28;4.73;;;3.63;;
8088;SDS011;57635;49.194;12.104;2023-09-30T15:02:56;4.97;;;3.97;;